createdAt,value
2022-10-16T00:01:29.666Z,9.30
2022-10-16T00:06:50.342Z,8.50
2022-10-16T00:11:52.537Z,7.60
2022-10-16T00:16:54.707Z,8.30
2022-10-16T00:21:56.872Z,9.80
2022-10-16T00:27:17.964Z,9.33
2022-10-16T00:32:21.116Z,7.20
2022-10-16T00:37:23.270Z,7.07
2022-10-16T00:42:25.707Z,6.80
2022-10-16T00:47:30.903Z,7.00
2022-10-16T00:52:33.113Z,6.20
2022-10-16T00:57:53.587Z,6.30
2022-10-16T01:02:58.240Z,5.40
2022-10-16T01:08:54.712Z,5.30
2022-10-16T01:14:00.107Z,5.53
2022-10-16T01:19:09.794Z,6.03
2022-10-16T01:24:40.587Z,4.67
2022-10-16T01:29:54.905Z,5.90
2022-10-16T01:35:28.643Z,5.37
2022-10-16T01:40:31.495Z,5.30
2022-10-16T01:45:52.580Z,5.20
2022-10-16T01:51:12.000Z,5.37
2022-10-16T01:56:15.259Z,4.60
2022-10-16T02:01:20.775Z,5.47
2022-10-16T02:06:23.951Z,6.03
2022-10-16T02:11:26.150Z,6.00
2022-10-16T02:16:44.008Z,7.50
2022-10-16T02:21:51.671Z,8.05
2022-10-16T02:27:00.580Z,5.83
2022-10-16T02:32:05.197Z,7.22
2022-10-16T02:37:07.976Z,6.20
2022-10-16T02:42:14.530Z,5.87
2022-10-16T02:47:16.813Z,6.23
2022-10-16T02:52:19.010Z,5.03
2022-10-16T02:57:21.256Z,4.50
2022-10-16T03:02:23.480Z,5.30
2022-10-16T03:07:25.766Z,5.23
2022-10-16T03:12:29.033Z,7.67
2022-10-16T03:17:31.366Z,5.17
2022-10-16T03:22:33.536Z,5.27
2022-10-16T03:27:35.731Z,5.00
2022-10-16T03:32:37.947Z,6.63
2022-10-16T03:37:40.158Z,4.33
2022-10-16T03:42:44.215Z,4.60
2022-10-16T03:48:05.272Z,4.40
2022-10-16T03:53:07.500Z,5.87
2022-10-16T03:58:21.885Z,4.50
2022-10-16T04:03:24.290Z,4.87
2022-10-16T04:08:26.542Z,4.43
2022-10-16T04:13:28.841Z,5.20
2022-10-16T04:18:49.595Z,4.60
2022-10-16T04:23:51.743Z,5.03
2022-10-16T04:28:54.062Z,4.70
2022-10-16T04:33:56.374Z,5.37
2022-10-16T04:38:58.615Z,5.40
2022-10-16T04:44:00.752Z,8.27
2022-10-16T04:49:03.015Z,11.07
2022-10-16T04:54:05.235Z,11.83
2022-10-16T04:59:11.077Z,11.60
2022-10-16T05:04:13.447Z,9.77
2022-10-16T05:09:15.791Z,10.73
2022-10-16T05:14:18.023Z,10.67
2022-10-16T05:19:27.238Z,7.33
2022-10-16T05:24:55.899Z,7.00
2022-10-16T05:30:17.996Z,6.07
2022-10-16T05:35:21.138Z,5.27
2022-10-16T05:40:23.278Z,4.80
2022-10-16T05:45:25.526Z,5.37
2022-10-16T05:50:28.196Z,4.93
2022-10-16T05:55:30.428Z,5.20
2022-10-16T06:00:32.611Z,4.80
2022-10-16T06:05:34.888Z,5.00
2022-10-16T06:10:37.153Z,4.63
2022-10-16T06:15:40.448Z,4.70
2022-10-16T06:26:06.464Z,3.93
2022-10-16T06:31:10.590Z,4.27
2022-10-16T06:36:15.710Z,5.07
2022-10-16T06:41:19.804Z,4.73
2022-10-16T06:46:25.605Z,4.17
2022-10-16T06:51:27.896Z,4.70
2022-10-16T06:56:35.497Z,3.90
2022-10-16T07:01:37.669Z,3.67
2022-10-16T07:06:40.346Z,4.43
2022-10-16T07:11:42.487Z,3.77
2022-10-16T07:16:47.476Z,4.03
2022-10-16T07:21:50.347Z,4.33
2022-10-16T07:26:52.635Z,4.20
2022-10-16T07:31:54.772Z,4.80
2022-10-16T07:36:59.592Z,4.13
2022-10-16T07:42:01.733Z,4.23
2022-10-16T07:47:04.092Z,4.43
2022-10-16T07:52:06.216Z,4.07
2022-10-16T07:57:08.335Z,4.00
2022-10-16T08:02:10.486Z,3.97
2022-10-16T08:07:12.700Z,5.13
2022-10-16T08:12:14.962Z,3.33
2022-10-16T08:17:17.120Z,4.10
2022-10-16T08:22:19.377Z,3.63
2022-10-16T08:27:21.474Z,3.93
2022-10-16T08:32:26.707Z,4.00
2022-10-16T08:37:33.796Z,3.40
2022-10-16T08:42:55.200Z,3.07
2022-10-16T08:48:15.505Z,5.57
2022-10-16T08:53:27.126Z,3.63
2022-10-16T08:58:31.353Z,4.07
2022-10-16T09:04:02.394Z,3.77
2022-10-16T09:09:32.696Z,3.30
2022-10-16T09:14:47.011Z,9.00
2022-10-16T09:20:15.472Z,6.33
2022-10-16T09:25:19.910Z,3.50
2022-10-16T09:30:23.040Z,5.13
2022-10-16T09:35:33.582Z,6.87
2022-10-16T09:40:38.138Z,4.50
2022-10-16T09:45:40.425Z,3.33
2022-10-16T09:50:42.623Z,6.67
2022-10-16T09:55:54.672Z,5.73
2022-10-16T10:00:56.835Z,8.63
2022-10-16T10:06:01.977Z,8.00
2022-10-16T10:11:05.950Z,5.90
2022-10-16T10:16:08.065Z,3.80
2022-10-16T10:21:16.149Z,3.10
2022-10-16T10:26:22.546Z,3.37
2022-10-16T10:31:28.612Z,2.90
2022-10-16T10:36:41.836Z,8.77
2022-10-16T10:41:56.117Z,10.83
2022-10-16T10:46:59.006Z,3.77
2022-10-16T10:52:19.753Z,3.77
2022-10-16T10:57:40.265Z,4.73
2022-10-16T11:02:56.291Z,6.23
2022-10-16T11:08:34.185Z,4.33
2022-10-16T11:13:59.889Z,16.77
2022-10-16T11:19:14.717Z,7.53
2022-10-16T11:24:47.511Z,5.20
2022-10-16T11:30:01.294Z,4.07
2022-10-16T11:35:42.197Z,5.03
2022-10-16T11:40:48.825Z,5.23
2022-10-16T11:45:53.988Z,11.07
2022-10-16T11:51:04.072Z,5.00
2022-10-16T11:56:06.767Z,3.07
2022-10-16T12:01:44.322Z,5.77
2022-10-16T12:07:04.377Z,3.83
2022-10-16T12:12:29.179Z,6.43
2022-10-16T12:17:39.047Z,7.90
2022-10-16T12:23:05.928Z,17.23
2022-10-16T12:28:20.316Z,7.40
2022-10-16T12:33:32.512Z,7.77
2022-10-16T12:38:34.807Z,15.30
2022-10-16T12:43:49.047Z,11.90
2022-10-16T12:49:08.266Z,8.60
2022-10-16T12:54:20.271Z,7.82
2022-10-16T12:59:41.339Z,4.30
2022-10-16T13:04:59.988Z,4.83
2022-10-16T13:10:14.262Z,3.20
2022-10-16T13:15:25.824Z,3.20
2022-10-16T13:21:05.440Z,2.53
2022-10-16T13:26:22.578Z,2.43
2022-10-16T13:31:25.805Z,3.03
2022-10-16T13:36:31.527Z,3.17
2022-10-16T13:41:33.985Z,3.03
2022-10-16T13:46:36.201Z,3.00
2022-10-16T13:51:38.846Z,3.07
2022-10-16T13:56:43.306Z,4.53
2022-10-16T14:01:45.915Z,3.90
2022-10-16T14:06:51.403Z,4.97
2022-10-16T14:12:00.628Z,4.50
2022-10-16T14:17:04.010Z,5.20
2022-10-16T14:22:28.147Z,5.00
2022-10-16T14:27:37.555Z,5.63
2022-10-16T14:32:43.248Z,5.93
2022-10-16T14:37:45.660Z,6.97
2022-10-16T14:42:48.134Z,26.57
2022-10-16T14:47:59.404Z,19.43
2022-10-16T14:53:01.734Z,17.90
2022-10-16T14:58:03.893Z,14.37
2022-10-16T15:03:06.072Z,36.87
2022-10-16T15:08:08.676Z,45.30
2022-10-16T15:13:15.217Z,41.13
2022-10-16T15:18:21.448Z,29.63
2022-10-16T15:28:48.209Z,11.83
2022-10-16T15:33:59.243Z,8.40
2022-10-16T15:39:01.813Z,9.63
2022-10-16T15:44:04.080Z,10.73
2022-10-16T15:49:06.518Z,8.70
2022-10-16T15:54:09.573Z,8.17
2022-10-16T15:59:11.879Z,8.20
2022-10-16T16:04:42.291Z,7.10
2022-10-16T16:09:39.939Z,6.10
2022-10-16T16:14:42.164Z,5.83
2022-10-16T16:19:44.442Z,5.77
2022-10-16T16:24:46.834Z,6.70
2022-10-16T16:29:49.175Z,7.10
2022-10-16T16:34:51.406Z,5.73
2022-10-16T16:39:55.750Z,5.20
2022-10-16T16:44:57.981Z,4.33
2022-10-16T16:50:00.754Z,5.87
2022-10-16T16:55:06.374Z,4.67
2022-10-16T17:00:09.588Z,3.93
2022-10-16T17:05:14.141Z,4.50
2022-10-16T17:10:17.827Z,5.23
2022-10-16T17:15:22.613Z,4.77
2022-10-16T17:20:38.109Z,4.73
2022-10-16T17:25:50.612Z,4.33
2022-10-16T17:31:08.584Z,4.20
2022-10-16T17:36:12.134Z,3.77
2022-10-16T17:41:20.229Z,5.03
2022-10-16T17:46:38.415Z,4.53
2022-10-16T17:51:47.189Z,4.53
2022-10-16T17:56:52.440Z,5.10
2022-10-16T18:01:54.771Z,4.60
2022-10-16T18:06:57.000Z,4.80
2022-10-16T18:12:03.370Z,5.20
2022-10-16T18:17:24.513Z,5.67
2022-10-16T18:22:31.401Z,4.73
2022-10-16T18:27:34.208Z,4.60
2022-10-16T18:32:36.453Z,4.70
2022-10-16T18:37:47.989Z,4.23
2022-10-16T18:42:53.490Z,5.00
2022-10-16T18:48:14.889Z,6.23
2022-10-16T18:53:17.670Z,7.87
2022-10-16T18:58:20.056Z,7.63
2022-10-16T19:03:22.378Z,5.80
2022-10-16T19:08:24.628Z,5.80
2022-10-16T19:13:26.838Z,5.33
2022-10-16T19:18:31.058Z,4.90
2022-10-16T19:23:56.919Z,3.80
2022-10-16T19:29:01.942Z,4.00
2022-10-16T19:34:07.250Z,3.80
2022-10-16T19:45:00.565Z,4.40
2022-10-16T19:50:05.594Z,4.27
2022-10-16T19:55:08.256Z,3.67
2022-10-16T20:00:29.181Z,4.30
2022-10-16T20:05:31.375Z,5.43
2022-10-16T20:10:33.627Z,4.30
2022-10-16T20:15:37.700Z,3.70
2022-10-16T20:20:44.770Z,3.07
2022-10-16T20:25:47.484Z,4.43
2022-10-16T20:30:50.980Z,4.27
2022-10-16T20:35:53.293Z,4.40
2022-10-16T20:40:56.009Z,3.13
2022-10-16T20:46:03.777Z,2.67
2022-10-16T20:51:19.207Z,2.93
2022-10-16T20:56:40.344Z,2.70
2022-10-16T21:01:42.833Z,3.23
2022-10-16T21:06:45.638Z,3.47
2022-10-16T21:12:06.744Z,3.07
2022-10-16T21:17:27.355Z,4.13
2022-10-16T21:22:30.885Z,3.80
2022-10-16T21:27:41.052Z,3.47
2022-10-16T21:32:43.212Z,3.88
2022-10-16T21:37:51.544Z,3.60
2022-10-16T21:42:53.765Z,3.40
2022-10-16T21:52:58.974Z,3.27
2022-10-16T21:58:01.374Z,4.00
2022-10-16T22:03:04.384Z,3.13
2022-10-16T22:08:06.704Z,3.83
2022-10-16T22:13:27.455Z,3.90
2022-10-16T22:18:30.428Z,4.43
2022-10-16T22:23:32.659Z,3.00
2022-10-16T22:28:35.311Z,3.40
2022-10-16T22:33:38.099Z,3.10
2022-10-16T22:38:40.356Z,3.00
2022-10-16T22:43:45.010Z,2.87
2022-10-16T22:48:47.193Z,2.80
2022-10-16T22:54:08.125Z,2.70
2022-10-16T22:59:10.510Z,2.97
2022-10-16T23:04:12.692Z,3.10
2022-10-16T23:09:14.845Z,2.60
2022-10-16T23:14:23.425Z,2.80
2022-10-16T23:19:25.569Z,2.77
2022-10-16T23:24:27.751Z,3.37
2022-10-16T23:29:30.065Z,2.73
2022-10-16T23:34:33.184Z,2.93
2022-10-16T23:39:35.349Z,3.30
2022-10-16T23:44:38.724Z,3.30
2022-10-16T23:49:40.879Z,3.20
2022-10-16T23:54:43.017Z,2.43
2022-10-16T23:59:48.269Z,2.70
